Time;durP1;ratioP1;P1;durP2;ratioP2;P2;SDS_P1;SDS_P2;PMS_P1;PMS_P2;Temp;Humidity;BMP_temperature;BMP_pressure;BME280_temperature;BME280_humidity;BME280_pressure;Samples;Min_cycle;Max_cycle;Signal;HPM_P1;HPM_P2
2022/11/16 00:01:47;;;;;;;10.32;8.70;;;;;;;15.99;63.81;99740.81;5071944;28;20106;-68
2022/11/16 00:04:14;;;;;;;12.68;9.38;;;;;;;15.98;63.67;99744.56;5069783;28;20039;-68
2022/11/16 00:06:40;;;;;;;10.75;8.85;;;;;;;15.99;63.75;99738.13;5072380;27;20082;-68
2022/11/16 00:09:22;;;;;;;10.52;8.73;;;;;;;15.98;63.95;99731.84;5071984;28;20033;-68
2022/11/16 00:11:50;;;;;;;13.38;9.68;;;;;;;15.98;63.93;99733.72;5071471;28;20055;-68
2022/11/16 00:16:50;;;;;;;9.88;8.73;;;;;;;15.96;63.76;99735.75;5071842;28;20040;-68
2022/11/16 00:19:17;;;;;;;10.93;9.27;;;;;;;15.95;63.86;99729.50;5072102;28;20113;-68
2022/11/16 00:21:43;;;;;;;11.07;9.27;;;;;;;15.96;63.88;99728.47;5071571;28;20095;-68
2022/11/16 00:24:15;;;;;;;12.13;9.63;;;;;;;15.95;64.04;99725.94;5070489;28;20037;-67
2022/11/16 00:26:56;;;;;;;13.43;9.63;;;;;;;15.94;63.83;99730.50;5071763;27;20525;-68
2022/11/16 00:29:24;;;;;;;11.20;10.00;;;;;;;15.91;64.21;99728.13;5051771;28;20080;-68
2022/11/16 00:31:51;;;;;;;13.73;9.52;;;;;;;15.91;64.22;99730.00;5064612;28;20037;-68
2022/11/16 00:34:23;;;;;;;13.05;9.85;;;;;;;15.89;64.26;99730.19;5072011;28;20049;-67
2022/11/16 00:36:50;;;;;;;14.65;10.18;;;;;;;15.89;64.36;99728.31;5070473;28;20052;-68
2022/11/16 00:39:18;;;;;;;14.20;10.85;;;;;;;15.90;64.52;99726.44;5071665;28;20060;-68
2022/11/16 00:41:45;;;;;;;12.82;9.32;;;;;;;15.89;64.18;99725.59;5071106;28;20041;-68
2022/11/16 00:44:12;;;;;;;11.82;9.57;;;;;;;15.90;64.45;99726.44;5071935;28;20041;-68
2022/11/16 00:46:39;;;;;;;14.68;11.45;;;;;;;15.90;64.43;99734.56;5069170;28;20048;-68
2022/11/16 00:49:07;;;;;;;14.73;10.32;;;;;;;15.89;64.62;99741.84;5070123;28;20043;-68
2022/11/16 00:51:35;;;;;;;12.55;10.40;;;;;;;15.89;64.62;99736.44;5070283;28;20131;-68
2022/11/16 00:54:03;;;;;;;14.75;10.05;;;;;;;15.88;64.36;99734.75;5069908;28;20036;-68
2022/11/16 00:56:34;;;;;;;17.10;10.93;;;;;;;15.88;64.54;99734.75;5070761;28;20051;-68
2022/11/16 00:59:00;;;;;;;14.32;10.98;;;;;;;15.91;64.77;99738.13;5069897;28;20051;-68
2022/11/16 01:01:27;;;;;;;15.85;11.05;;;;;;;15.92;64.36;99737.97;5071772;28;20449;-68
2022/11/16 01:03:54;;;;;;;12.48;10.23;;;;;;;15.92;64.48;99743.38;5071001;28;20044;-68
2022/11/16 01:06:22;;;;;;;13.70;10.27;;;;;;;15.91;64.38;99741.69;5073634;28;20044;-68
2022/11/16 01:08:49;;;;;;;13.88;10.93;;;;;;;15.91;64.66;99751.66;5073268;28;20051;-68
2022/11/16 01:14:05;;;;;;;12.68;9.77;;;;;;;15.91;64.38;99748.97;5072144;28;20380;-69
2022/11/16 01:16:37;;;;;;;12.00;10.40;;;;;;;15.89;64.67;99744.56;5072368;28;20036;-68
2022/11/16 01:19:04;;;;;;;14.65;10.00;;;;;;;15.91;64.53;99738.97;5074058;28;20032;-69
2022/11/16 01:21:31;;;;;;;12.23;9.73;;;;;;;15.94;64.57;99732.38;5076608;28;20052;-68
2022/11/16 01:23:58;;;;;;;13.30;9.40;;;;;;;15.96;64.85;99716.78;5072544;28;20094;-68
2022/11/16 01:26:24;;;;;;;11.88;9.07;;;;;;;15.98;64.62;99714.75;5070787;27;20051;-69
2022/11/16 01:28:51;;;;;;;10.90;8.88;;;;;;;15.98;64.74;99718.31;5072414;28;20028;-69
2022/11/16 01:31:19;;;;;;;13.88;8.25;;;;;;;15.98;64.64;99723.72;5070599;28;20040;-69
2022/11/16 01:33:48;;;;;;;10.00;7.85;;;;;;;15.98;64.75;99722.88;5070102;28;20418;-68
2022/11/16 01:36:24;;;;;;;11.25;6.10;;;;;;;15.98;64.53;99714.75;5070374;28;20046;-68
2022/11/16 01:38:52;;;;;;;8.93;6.40;;;;;;;15.96;64.65;99714.94;5070121;28;20046;-68
2022/11/16 01:41:26;;;;;;;8.52;6.55;;;;;;;15.95;64.33;99715.09;5070389;28;20074;-68
2022/11/16 01:44:02;;;;;;;8.45;6.88;;;;;;;15.94;64.33;99705.28;5071309;28;20087;-68
2022/11/16 01:46:35;;;;;;;9.38;7.03;;;;;;;15.93;64.64;99699.03;5070629;28;20044;-68
2022/11/16 01:49:15;;;;;;;7.85;6.80;;;;;;;15.93;64.66;99696.31;5070260;28;20449;-68
2022/11/16 01:51:47;;;;;;;6.93;5.93;;;;;;;15.94;64.29;99684.47;5069708;28;20503;-68
2022/11/16 01:54:15;;;;;;;8.02;6.50;;;;;;;15.92;64.19;99683.81;5070394;28;20035;-68
2022/11/16 01:56:54;;;;;;;8.25;6.68;;;;;;;15.93;64.36;99692.78;5070585;27;20435;-68
2022/11/16 01:59:35;;;;;;;8.75;7.45;;;;;;;15.92;64.82;99689.22;5069349;28;20571;-68
2022/11/16 02:02:03;;;;;;;8.93;6.95;;;;;;;15.91;64.50;99681.25;5070352;28;20033;-68
2022/11/16 02:04:35;;;;;;;8.25;7.18;;;;;;;15.92;64.73;99691.06;5069136;28;20389;-68
2022/11/16 02:09:52;;;;;;;9.93;7.95;;;;;;;15.88;64.59;99683.31;5069313;28;20037;-68
2022/11/16 02:10:39;;;;;;;8.90;8.00;;;;;;;15.89;64.56;99679.56;5069023;28;20127;-68
2022/11/16 02:13:20;;;;;;;9.68;8.25;;;;;;;15.88;64.53;99685.16;5070406;28;20098;-68
2022/11/16 02:15:56;;;;;;;10.93;8.75;;;;;;;15.88;64.58;99679.75;5069112;28;20045;-68
2022/11/16 02:18:51;;;;;;;13.77;9.52;;;;;;;15.89;64.87;99679.56;5069330;28;20041;-67
2022/11/16 02:21:30;;;;;;;11.30;8.98;;;;;;;15.88;64.78;99672.47;5070582;28;20041;-68
2022/11/16 02:24:34;;;;;;;9.93;8.93;;;;;;;15.88;64.53;99672.47;5070522;28;20310;-68
2022/11/16 02:27:21;;;;;;;12.07;10.27;;;;;;;15.88;64.57;99661.63;5095734;28;20467;-68
2022/11/16 02:29:53;;;;;;;11.63;10.38;;;;;;;15.88;64.52;99672.47;5072811;28;20048;-69
2022/11/16 02:32:25;;;;;;;14.18;9.88;;;;;;;15.89;64.61;99670.59;5073895;28;20048;-68
2022/11/16 02:35:03;;;;;;;12.75;10.13;;;;;;;15.89;64.94;99663.31;5072577;28;20036;-68
2022/11/16 02:37:34;;;;;;;12.60;10.13;;;;;;;15.91;64.71;99659.59;5072721;28;20037;-68
2022/11/16 02:40:06;;;;;;;12.15;10.15;;;;;;;15.92;64.64;99664.00;5072337;28;20290;-67
2022/11/16 02:42:38;;;;;;;15.48;11.25;;;;;;;15.92;64.97;99655.88;5072434;28;20048;-67
2022/11/16 02:45:08;;;;;;;11.98;10.32;;;;;;;15.91;64.93;99659.59;5073682;28;20037;-68
2022/11/16 02:47:37;;;;;;;12.35;10.40;;;;;;;15.92;65.04;99661.28;5073622;27;20049;-68
2022/11/16 02:50:10;;;;;;;11.95;9.90;;;;;;;15.93;65.11;99658.41;5072449;28;20043;-68
2022/11/16 02:52:37;;;;;;;13.38;10.10;;;;;;;15.95;64.75;99656.38;5073405;28;20045;-68
2022/11/16 02:55:08;;;;;;;10.63;9.52;;;;;;;15.96;65.00;99659.94;5072637;28;20041;-68
2022/11/16 02:57:50;;;;;;;14.63;9.77;;;;;;;15.98;65.20;99660.59;5071933;28;20040;-68
2022/11/16 03:00:21;;;;;;;13.68;9.68;;;;;;;15.98;65.05;99661.44;5072122;28;20071;-68
2022/11/16 03:03:11;;;;;;;11.32;10.13;;;;;;;15.98;65.14;99660.59;5071941;28;20094;-68
2022/11/16 03:05:52;;;;;;;11.32;10.13;;;;;;;16.01;65.21;99668.38;5072287;28;20132;-69
2022/11/16 03:08:30;;;;;;;12.95;9.50;;;;;;;16.00;64.90;99663.97;5073361;27;20052;-68
2022/11/16 03:14:01;;;;;;;12.85;10.00;;;;;;;15.98;65.02;99658.75;5071964;28;20044;-68
2022/11/16 03:16:39;;;;;;;17.80;9.60;;;;;;;15.98;64.93;99655.19;5072281;28;20040;-68
2022/11/16 03:19:10;;;;;;;13.93;9.55;;;;;;;16.02;64.87;99662.78;5071752;28;20037;-68
2022/11/16 03:21:50;;;;;;;12.15;10.48;;;;;;;16.06;65.15;99663.28;5071980;28;20044;-69
2022/11/16 03:27:00;;;;;;;11.32;9.55;;;;;;;16.10;64.88;99665.47;5072260;28;20036;-68
2022/11/16 03:29:32;;;;;;;13.70;9.40;;;;;;;16.08;64.89;99656.69;5071900;28;20566;-68
2022/11/16 03:32:19;;;;;;;13.02;10.20;;;;;;;16.05;65.03;99675.16;5071632;28;20044;-69
2022/11/16 03:35:23;;;;;;;10.70;9.60;;;;;;;16.07;65.25;99675.81;5071657;28;20135;-68
2022/11/16 03:37:53;;;;;;;11.68;9.43;;;;;;;16.10;65.01;99660.06;5021307;28;20044;-68
2022/11/16 03:40:23;;;;;;;9.52;8.52;;;;;;;16.09;64.97;99673.78;5071903;28;20052;-68
2022/11/16 03:42:51;;;;;;;10.82;8.55;;;;;;;16.09;65.05;99671.91;5071669;28;20049;-68
2022/11/16 03:45:22;;;;;;;9.68;8.35;;;;;;;16.10;65.04;99681.72;5071843;28;20043;-68
2022/11/16 03:47:51;;;;;;;10.32;8.52;;;;;;;16.12;64.99;99686.97;5071717;28;20079;-68
2022/11/16 03:50:19;;;;;;;10.25;8.00;;;;;;;16.12;65.10;99682.41;5071465;28;20143;-68
2022/11/16 03:52:46;;;;;;;11.95;8.32;;;;;;;16.14;64.71;99690.34;5071855;28;20090;-69
2022/11/16 03:55:18;;;;;;;10.50;8.52;;;;;;;16.17;64.64;99696.28;5072818;28;20028;-69
2022/11/16 03:57:44;;;;;;;10.32;9.25;;;;;;;16.19;64.82;99701.53;5071754;28;20041;-68
2022/11/16 04:00:12;;;;;;;8.85;7.95;;;;;;;16.19;64.61;99696.09;5072565;28;20396;-68
2022/11/16 04:02:38;;;;;;;9.10;7.93;;;;;;;16.17;64.40;99698.97;5073870;28;20143;-69
2022/11/16 04:24:54;;;;;;;7.75;6.95;;;;;;;16.14;64.40;99706.59;5071899;28;20032;-68
2022/11/16 04:30:13;;;;;;;7.00;5.90;;;;;;;16.10;64.33;99716.94;5070467;28;20380;-68
2022/11/16 04:37:58;;;;;;;10.27;4.63;;;;;;;16.02;64.25;99721.53;5071669;27;20105;-68
2022/11/16 04:40:31;;;;;;;4.57;3.65;;;;;;;16.00;64.27;99723.56;5071775;28;20119;-68
2022/11/16 04:43:02;;;;;;;6.07;3.90;;;;;;;15.97;64.06;99727.47;5071307;28;20106;-68
2022/11/16 04:48:25;;;;;;;5.07;2.75;;;;;;;15.92;63.96;99739.81;5070615;28;20040;-68
2022/11/16 04:50:53;;;;;;;4.85;2.72;;;;;;;15.90;64.10;99737.28;5069720;28;20052;-67
2022/11/16 04:53:21;;;;;;;5.25;2.72;;;;;;;15.88;64.06;99737.44;5070039;28;20433;-68
2022/11/16 04:55:59;;;;;;;3.45;2.20;;;;;;;15.85;63.64;99745.91;5070598;28;20090;-67
2022/11/16 04:58:27;;;;;;;3.67;2.30;;;;;;;15.80;63.77;99740.16;5070154;28;20040;-68
2022/11/16 05:00:54;;;;;;;3.25;2.17;;;;;;;15.76;63.71;99748.78;5070166;28;20041;-68
2022/11/16 05:03:21;;;;;;;3.85;2.30;;;;;;;15.73;63.55;99743.72;5069712;28;20037;-68
2022/11/16 05:05:50;;;;;;;2.40;2.00;;;;;;;15.71;63.95;99753.88;5070341;28;20040;-67
2022/11/16 05:08:16;;;;;;;2.60;1.80;;;;;;;15.69;63.81;99753.19;5070202;28;20043;-67
2022/11/16 05:10:49;;;;;;;3.63;1.92;;;;;;;15.68;63.43;99756.91;5070258;28;20090;-68
2022/11/16 05:13:16;;;;;;;4.40;2.30;;;;;;;15.64;63.41;99756.41;5069823;28;20102;-68
2022/11/16 05:15:47;;;;;;;4.30;1.95;;;;;;;15.60;63.47;99760.44;5070517;28;20064;-68
2022/11/16 05:18:14;;;;;;;5.10;2.15;;;;;;;15.59;63.70;99769.56;5070041;28;20370;-68
2022/11/16 05:20:59;;;;;;;3.65;1.90;;;;;;;15.57;63.28;99766.13;5069653;28;20033;-68
2022/11/16 05:26:17;;;;;;;4.05;1.80;;;;;;;15.58;63.54;99762.44;5069870;28;20512;-68
2022/11/16 05:28:44;;;;;;;5.43;1.95;;;;;;;15.59;63.50;99766.84;5071386;28;20040;-68
2022/11/16 05:31:11;;;;;;;4.78;1.85;;;;;;;15.57;63.27;99764.31;5069788;28;20072;-68
2022/11/16 05:33:39;;;;;;;3.95;2.20;;;;;;;15.56;63.20;99769.84;5069750;28;20241;-68
2022/11/16 05:36:06;;;;;;;4.20;1.95;;;;;;;15.55;63.26;99770.88;5070130;28;20557;-69
2022/11/16 05:38:33;;;;;;;3.60;2.40;;;;;;;15.55;63.28;99770.88;5070497;28;20041;-68
2022/11/16 05:41:02;;;;;;;3.38;1.80;;;;;;;15.51;63.00;99770.34;5070204;28;20613;-68
2022/11/16 05:43:29;;;;;;;4.00;1.92;;;;;;;15.50;63.51;99765.13;5069865;28;20048;-68
2022/11/16 05:46:17;;;;;;;6.40;2.30;;;;;;;15.49;63.05;99766.97;5069940;28;20140;-68
2022/11/16 05:48:44;;;;;;;5.75;2.35;;;;;;;15.48;63.39;99764.44;5071357;28;20051;-68
2022/11/16 05:51:11;;;;;;;2.72;1.88;;;;;;;15.46;63.45;99761.91;5070057;28;20043;-68
2022/11/16 05:53:38;;;;;;;4.15;2.35;;;;;;;15.43;62.95;99759.53;5071003;28;20029;-67
2022/11/16 05:56:06;;;;;;;3.10;2.00;;;;;;;15.39;62.71;99766.28;5070210;28;20048;-67
2022/11/16 05:58:36;;;;;;;5.30;2.17;;;;;;;15.35;63.05;99758.66;5070043;28;20422;-68
2022/11/16 06:01:04;;;;;;;4.43;2.15;;;;;;;15.31;62.86;99768.97;5069094;28;20040;-68
2022/11/16 06:03:31;;;;;;;6.10;2.58;;;;;;;15.26;62.90;99753.22;5074406;28;20054;-69
2022/11/16 06:06:03;;;;;;;3.75;2.10;;;;;;;15.21;62.43;99760.16;5073411;28;20041;-69
2022/11/16 06:08:30;;;;;;;5.35;2.10;;;;;;;15.15;62.80;99771.63;5075266;28;20041;-68
2022/11/16 06:11:03;;;;;;;4.78;2.33;;;;;;;15.10;62.54;99774.81;5074100;28;20048;-68
2022/11/16 06:13:32;;;;;;;6.53;2.25;;;;;;;15.08;62.41;99779.56;5075486;28;20055;-68
2022/11/16 06:16:01;;;;;;;5.95;2.03;;;;;;;15.04;62.24;99789.00;5076474;28;20032;-68
2022/11/16 06:18:29;;;;;;;3.30;2.22;;;;;;;15.01;62.27;99785.78;5073336;28;20041;-69
2022/11/16 06:20:57;;;;;;;4.82;2.00;;;;;;;14.98;61.94;99789.66;5073347;28;20517;-69
2022/11/16 06:23:24;;;;;;;5.30;2.00;;;;;;;14.92;62.08;99791.16;5073439;28;20053;-68
2022/11/16 06:25:55;;;;;;;5.18;2.45;;;;;;;14.88;61.56;99794.34;5073538;28;20044;-69
2022/11/16 06:28:25;;;;;;;4.40;2.03;;;;;;;14.83;61.73;99796.66;5074778;28;20119;-68
2022/11/16 06:30:52;;;;;;;5.03;2.13;;;;;;;14.79;61.54;99803.41;5073331;28;20410;-67
2022/11/16 06:33:21;;;;;;;5.38;2.30;;;;;;;14.73;61.33;99802.19;5073511;28;20045;-68
2022/11/16 06:35:52;;;;;;;3.28;2.30;;;;;;;14.68;61.48;99804.53;5073479;28;20090;-68
2022/11/16 06:38:23;;;;;;;4.15;2.10;;;;;;;14.62;61.52;99803.31;5073662;28;20091;-68
2022/11/16 06:40:54;;;;;;;4.38;2.17;;;;;;;14.57;61.17;99812.91;5073358;28;20048;-68
2022/11/16 06:43:23;;;;;;;2.95;2.42;;;;;;;14.47;60.94;99815.72;5073241;28;20076;-68
2022/11/16 06:45:57;;;;;;;4.55;2.38;;;;;;;14.33;60.95;99818.97;5073549;28;20049;-68
2022/11/16 06:48:24;;;;;;;5.35;2.50;;;;;;;14.17;61.26;99822.41;5073529;28;20049;-68
2022/11/16 06:50:51;;;;;;;4.20;2.40;;;;;;;14.05;61.11;99823.63;5073252;28;20538;-68
2022/11/16 06:53:20;;;;;;;4.43;3.72;;;;;;;14.00;61.08;99832.19;5073341;28;20044;-68
2022/11/16 06:56:04;;;;;;;6.60;3.90;;;;;;;13.92;61.00;99836.66;5073927;28;20036;-69
2022/11/16 06:58:35;;;;;;;5.57;3.72;;;;;;;13.87;61.38;99839.81;5073016;28;20049;-69
2022/11/16 07:01:07;;;;;;;9.98;3.92;;;;;;;13.86;61.38;99837.28;5072218;28;20143;-69
2022/11/16 07:03:37;;;;;;;5.45;4.45;;;;;;;13.81;61.01;99843.16;5072035;28;20083;-69
2022/11/16 07:06:07;;;;;;;8.07;4.65;;;;;;;13.76;61.12;99841.91;5071912;28;20659;-69
2022/11/16 07:08:35;;;;;;;6.78;3.83;;;;;;;13.73;61.10;99848.47;5071272;28;20252;-69
2022/11/16 07:11:07;;;;;;;6.45;3.80;;;;;;;13.69;61.22;99847.06;5071552;28;20510;-69
2022/11/16 07:13:34;;;;;;;9.98;3.92;;;;;;;13.67;61.23;99843.69;5072879;28;20478;-69
2022/11/16 07:16:09;;;;;;;4.32;3.88;;;;;;;13.62;61.45;99849.53;5071685;28;20041;-69
2022/11/16 07:18:40;;;;;;;6.40;3.60;;;;;;;13.60;61.46;99848.84;5071779;28;20044;-69
2022/11/16 07:21:11;;;;;;;6.78;3.50;;;;;;;13.60;61.46;99846.13;5072015;28;20045;-70
2022/11/16 07:23:38;;;;;;;7.25;3.78;;;;;;;13.61;61.38;99847.84;5072058;28;20437;-69
2022/11/16 07:26:10;;;;;;;5.03;3.28;;;;;;;13.62;61.71;99857.63;5072270;28;20053;-69
2022/11/16 07:28:42;;;;;;;;;;;;;;;13.63;61.46;99864.72;5072276;28;20143;-69
2022/11/16 07:31:17;;;;;;;8.23;3.67;;;;;;;13.66;61.72;99866.25;5073456;27;19966;-70
2022/11/16 07:33:44;;;;;;;6.97;3.65;;;;;;;13.62;61.38;99862.19;5071753;28;20135;-70
2022/11/16 07:36:37;;;;;;;5.45;3.47;;;;;;;13.57;61.36;99859.94;5072924;28;20056;-69
2022/11/16 07:39:05;;;;;;;10.82;3.97;;;;;;;13.53;61.54;99871.19;5072710;28;20495;-69
2022/11/16 07:41:32;;;;;;;10.90;6.20;;;;;;;13.51;61.92;99871.34;5073143;28;20036;-70
2022/11/16 07:44:09;;;;;;;10.80;7.22;;;;;;;13.50;61.75;99874.19;5071811;28;20063;-67
2022/11/16 07:46:41;;;;;;;14.10;7.53;;;;;;;13.50;61.98;99874.19;5071892;28;20040;-71
2022/11/16 07:49:16;;;;;;;11.63;6.55;;;;;;;13.57;62.20;99886.06;5071370;28;20410;-67
2022/11/16 07:51:55;;;;;;;8.57;5.75;;;;;;;13.65;62.74;99884.31;5071196;28;20045;-67
2022/11/16 07:54:38;;;;;;;12.77;5.90;;;;;;;13.74;62.43;99879.84;5071865;28;20045;-68
2022/11/16 07:57:07;;;;;;;7.03;4.82;;;;;;;13.83;62.52;99891.56;5071647;28;20138;-67
2022/11/16 07:59:33;;;;;;;5.78;3.92;;;;;;;13.89;62.95;99893.66;5071818;28;20067;-68
2022/11/16 08:02:02;;;;;;;7.20;3.72;;;;;;;13.93;62.71;99897.75;5071313;28;20068;-68
2022/11/16 08:04:32;;;;;;;8.98;3.95;;;;;;;13.93;62.90;99906.69;5071863;28;20498;-68
2022/11/16 08:06:59;;;;;;;7.88;3.30;;;;;;;13.95;62.39;99901.13;5071490;28;20079;-67
2022/11/16 08:09:30;;;;;;;6.70;3.13;;;;;;;13.95;62.63;99903.84;5071670;28;20075;-69
2022/11/16 08:11:57;;;;;;;7.35;3.35;;;;;;;13.95;62.37;99907.38;5071860;28;20048;-69
2022/11/16 08:14:25;;;;;;;8.25;3.45;;;;;;;13.98;62.75;99896.28;5071776;28;20036;-69
2022/11/16 08:16:54;;;;;;;6.22;3.22;;;;;;;14.01;62.89;99911.31;5071384;28;20043;-68
2022/11/16 08:19:21;;;;;;;6.63;3.30;;;;;;;14.04;62.39;99907.47;5071486;28;20095;-69
2022/11/16 08:21:48;;;;;;;5.85;3.05;;;;;;;14.05;62.88;99909.16;5073057;28;20119;-69
2022/11/16 08:24:15;;;;;;;9.60;3.40;;;;;;;14.10;62.63;99910.41;5070568;28;20495;-69
2022/11/16 08:26:46;;;;;;;9.45;3.10;;;;;;;14.15;62.60;99909.97;5072737;28;20102;-67
2022/11/16 08:29:14;;;;;;;9.25;3.33;;;;;;;14.18;62.86;99909.66;5071116;28;20044;-66
2022/11/16 08:31:46;;;;;;;5.25;2.72;;;;;;;14.21;62.95;99907.50;5070550;28;20048;-65
2022/11/16 08:34:17;;;;;;;9.93;3.40;;;;;;;14.26;62.67;99905.16;5071011;28;20568;-68
2022/11/16 08:36:50;;;;;;;6.10;3.00;;;;;;;14.33;62.98;99900.00;5072346;27;20124;-69
2022/11/16 08:39:23;;;;;;;7.90;2.92;;;;;;;14.40;62.72;99911.88;5071247;28;20041;-69
2022/11/16 08:41:49;;;;;;;4.63;2.88;;;;;;;14.45;62.69;99909.56;5070398;28;20049;-69
2022/11/16 08:44:16;;;;;;;10.75;2.80;;;;;;;14.53;63.01;99915.03;5070121;28;20037;-69
2022/11/16 08:47:04;;;;;;;9.32;2.60;;;;;;;14.63;63.02;99923.06;5069770;28;20033;-69
2022/11/16 08:49:51;;;;;;;11.70;3.03;;;;;;;14.72;62.94;99916.69;5069445;28;20122;-69
2022/11/16 08:52:19;;;;;;;8.90;2.92;;;;;;;14.83;63.12;99921.00;5068085;28;20110;-69
2022/11/16 08:54:49;;;;;;;12.90;2.97;;;;;;;14.92;62.58;99920.94;5068732;28;20045;-69
2022/11/16 08:57:16;;;;;;;9.68;2.40;;;;;;;15.04;62.76;99926.06;5069627;27;20514;-69
2022/11/16 08:59:45;;;;;;;5.57;2.28;;;;;;;15.12;62.30;99926.97;5068277;28;20056;-69
2022/11/16 09:02:12;;;;;;;10.18;2.22;;;;;;;15.24;62.22;99933.78;5067797;28;20041;-69
2022/11/16 09:04:42;;;;;;;4.57;1.95;;;;;;;15.35;62.07;99931.81;5071679;28;20036;-69
2022/11/16 09:07:09;;;;;;;11.20;2.45;;;;;;;15.41;61.85;99939.28;5071800;27;20052;-69
2022/11/16 09:09:35;;;;;;;12.07;2.40;;;;;;;15.47;62.02;99935.91;5072260;28;20036;-69
2022/11/16 09:12:02;;;;;;;11.95;2.60;;;;;;;15.52;61.90;99936.28;5071593;28;20056;-67
2022/11/16 09:14:31;;;;;;;5.97;1.95;;;;;;;15.58;61.79;99932.94;5072469;28;20044;-68
2022/11/16 09:16:58;;;;;;;4.75;1.92;;;;;;;15.65;61.42;99931.31;5075652;27;20048;-67
2022/11/16 09:19:25;;;;;;;10.70;2.15;;;;;;;15.71;61.44;99929.81;5077086;28;20052;-68
2022/11/16 09:21:51;;;;;;;9.15;2.67;;;;;;;15.78;61.30;99936.25;5072199;28;20052;-67
2022/11/16 09:24:22;;;;;;;10.65;2.28;;;;;;;15.84;61.41;99928.31;5072543;28;20044;-68
2022/11/16 09:26:48;;;;;;;4.82;1.90;;;;;;;15.89;60.91;99933.25;5072633;28;20101;-67
2022/11/16 09:29:15;;;;;;;5.97;2.13;;;;;;;15.91;60.61;99938.50;5078081;28;20101;-67
2022/11/16 09:31:42;;;;;;;6.57;2.13;;;;;;;15.96;60.87;99936.13;5090604;28;20097;-68
2022/11/16 09:34:09;;;;;;;12.45;2.53;;;;;;;16.04;61.03;99939.72;5090813;28;20046;-67
2022/11/16 09:36:37;;;;;;;5.80;2.10;;;;;;;16.11;60.81;99929.91;5081012;28;20082;-67
2022/11/16 09:39:03;;;;;;;9.32;2.90;;;;;;;16.19;60.44;99935.34;5075962;28;20082;-68
2022/11/16 09:42:20;;;;;;;10.13;2.40;;;;;;;16.25;60.44;99943.81;5074822;28;20060;-67
2022/11/16 09:45:18;;;;;;;6.53;2.05;;;;;;;16.31;60.08;99949.41;5075346;28;20040;-67
2022/11/16 09:47:58;;;;;;;14.75;2.38;;;;;;;16.35;59.94;99944.50;5067526;28;20453;-67
2022/11/16 09:50:45;;;;;;;8.27;2.92;;;;;;;16.40;59.91;99951.13;5074933;28;20148;-67
2022/11/16 09:53:38;;;;;;;6.90;2.15;;;;;;;16.49;59.91;99957.41;5074636;28;20409;-68
2022/11/16 09:56:28;;;;;;;5.53;1.73;;;;;;;16.54;59.43;99952.31;5076956;28;20098;-68
2022/11/16 09:59:20;;;;;;;9.68;2.20;;;;;;;16.59;59.46;99952.66;5076753;28;20052;-68
2022/11/16 10:01:56;;;;;;;7.40;2.60;;;;;;;16.64;59.61;99950.28;5077526;28;20098;-67
2022/11/16 10:04:42;;;;;;;8.48;2.22;;;;;;;16.66;59.17;99947.44;5076935;28;20052;-69
2022/11/16 10:07:24;;;;;;;10.23;2.83;;;;;;;16.67;59.11;99951.84;5077692;28;20453;-68
2022/11/16 10:09:51;;;;;;;8.88;2.60;;;;;;;16.64;58.92;99952.16;5076928;28;20044;-68
2022/11/16 10:12:27;;;;;;;9.88;2.95;;;;;;;16.62;58.93;99946.91;5079517;28;20048;-68
2022/11/16 10:15:22;;;;;;;10.50;3.05;;;;;;;16.63;58.65;99955.88;5078387;28;20551;-68
2022/11/16 10:18:06;;;;;;;8.03;2.90;;;;;;;16.68;58.95;99954.38;5074234;28;20052;-68
2022/11/16 10:20:45;;;;;;;8.38;3.13;;;;;;;16.77;58.99;99949.81;5075370;28;20352;-69
2022/11/16 10:23:21;;;;;;;6.80;3.13;;;;;;;16.82;58.63;99953.72;5074753;28;20040;-67
2022/11/16 10:26:18;;;;;;;12.35;3.17;;;;;;;16.84;58.28;99951.66;5073875;28;20052;-68
2022/11/16 10:29:03;;;;;;;8.02;2.63;;;;;;;16.88;58.30;99951.31;5073900;28;20041;-71
2022/11/16 10:31:56;;;;;;;7.18;3.05;;;;;;;16.87;57.62;99955.06;5073996;28;20494;-70
2022/11/16 10:34:33;;;;;;;6.03;2.80;;;;;;;16.83;57.78;99951.84;5073895;28;20433;-70
2022/11/16 10:37:02;;;;;;;7.60;2.90;;;;;;;16.89;58.08;99953.88;5074112;28;20044;-70
2022/11/16 10:39:31;;;;;;;8.57;2.53;;;;;;;16.91;57.85;99950.97;5073726;28;20048;-69
2022/11/16 10:42:02;;;;;;;8.40;2.88;;;;;;;16.93;57.73;99951.66;5073721;28;20040;-69
2022/11/16 10:45:21;;;;;;;6.53;2.53;;;;;;;16.95;57.41;99947.75;5073673;28;20041;-70
2022/11/16 10:47:55;;;;;;;9.15;2.90;;;;;;;17.04;57.82;99948.59;5063950;28;20048;-68
2022/11/16 10:50:38;;;;;;;7.47;2.50;;;;;;;17.14;57.61;99943.84;5073998;28;20048;-69
2022/11/16 10:53:04;;;;;;;8.10;2.88;;;;;;;17.21;57.39;99944.00;5073324;28;20858;-70
2022/11/16 10:55:31;;;;;;;9.85;3.03;;;;;;;17.26;57.42;99939.75;5072831;28;20061;-71
2022/11/16 10:58:01;;;;;;;5.97;2.85;;;;;;;17.33;56.91;99937.19;5073776;28;20040;-71
2022/11/16 11:00:56;;;;;;;6.47;2.40;;;;;;;17.37;56.66;99938.53;5072301;28;20512;-69
2022/11/16 11:03:30;;;;;;;7.47;2.40;;;;;;;17.41;57.04;99937.16;5071710;28;20045;-69
2022/11/16 11:05:57;;;;;;;6.47;2.67;;;;;;;17.52;56.96;99927.78;5073239;27;20138;-71
2022/11/16 11:08:29;;;;;;;11.93;2.55;;;;;;;17.59;56.57;99935.03;5073548;28;20110;-71
2022/11/16 11:11:00;;;;;;;9.95;2.58;;;;;;;17.69;56.78;99924.00;5073217;28;20036;-71
2022/11/16 11:13:27;;;;;;;8.38;2.13;;;;;;;17.75;56.57;99921.41;5072614;28;20394;-72
2022/11/16 11:16:16;;;;;;;6.65;2.38;;;;;;;17.79;56.30;99921.91;5058776;28;20106;-72
2022/11/16 11:18:43;;;;;;;6.88;2.17;;;;;;;17.83;55.86;99917.81;5073292;28;20086;-71
2022/11/16 11:21:19;;;;;;;8.75;2.28;;;;;;;17.79;55.38;99921.91;5073332;28;20040;-71
2022/11/16 11:23:52;;;;;;;11.18;2.35;;;;;;;17.76;55.46;99919.56;5072702;28;20036;-72
2022/11/16 11:26:30;;;;;;;8.82;1.75;;;;;;;17.71;55.29;99921.94;5073192;27;20032;-71
2022/11/16 11:29:15;;;;;;;6.90;1.77;;;;;;;17.65;55.44;99919.91;5072994;28;20120;-72
2022/11/16 11:31:48;;;;;;;6.65;1.90;;;;;;;17.61;55.20;99921.28;5072972;28;20066;-72
2022/11/16 11:34:41;;;;;;;8.48;2.05;;;;;;;17.54;55.43;99923.88;5072454;28;20037;-72
2022/11/16 11:37:37;;;;;;;8.23;1.90;;;;;;;17.47;55.51;99912.88;5072956;28;20041;-72
2022/11/16 11:40:26;;;;;;;8.98;2.63;;;;;;;17.43;55.30;99913.41;5072047;28;20045;-71
2022/11/16 11:43:00;;;;;;;4.90;1.90;;;;;;;17.39;55.34;99912.91;5072356;28;20110;-72
2022/11/16 11:45:44;;;;;;;4.32;1.70;;;;;;;17.40;55.43;99909.16;5072774;28;20045;-72
2022/11/16 11:48:39;;;;;;;4.25;1.67;;;;;;;17.40;55.13;99903.72;5072805;28;20448;-72
2022/11/16 11:51:09;;;;;;;6.53;2.03;;;;;;;17.39;55.10;99895.78;5072467;28;20041;-71
2022/11/16 11:53:50;;;;;;;4.82;1.52;;;;;;;17.38;55.48;99902.22;5072451;28;20079;-72
2022/11/16 11:56:18;;;;;;;5.20;1.60;;;;;;;17.37;55.12;99903.25;5074410;27;20074;-72
2022/11/16 11:58:46;;;;;;;4.82;1.55;;;;;;;17.33;55.27;99907.31;5074433;28;20086;-71
2022/11/16 12:01:37;;;;;;;6.35;1.80;;;;;;;17.23;54.98;99893.97;5073048;28;20448;-71
2022/11/16 12:04:48;;;;;;;5.30;1.92;;;;;;;17.11;54.79;99892.66;5072174;28;20056;-71
2022/11/16 12:07:24;;;;;;;5.15;1.67;;;;;;;17.08;54.79;99896.53;4994419;28;20060;-71
2022/11/16 12:10:02;;;;;;;4.65;1.60;;;;;;;17.04;54.85;99889.75;5068205;28;20049;-71
2022/11/16 12:12:55;;;;;;;4.07;1.60;;;;;;;17.00;54.83;99885.69;5072719;28;20086;-71
2022/11/16 12:15:30;;;;;;;4.00;1.45;;;;;;;16.98;55.10;99886.88;5073178;28;20098;-72
2022/11/16 12:18:16;;;;;;;5.10;1.52;;;;;;;16.96;55.18;99881.63;5071622;28;20434;-71
2022/11/16 12:20:55;;;;;;;7.22;1.80;;;;;;;16.92;54.96;99874.88;5070751;27;20040;-72
2022/11/16 12:23:49;;;;;;;4.47;1.60;;;;;;;16.88;55.12;99878.94;5071622;28;20552;-72
2022/11/16 12:26:19;;;;;;;6.68;1.75;;;;;;;16.85;55.03;99879.28;5071751;28;20044;-71
2022/11/16 12:28:59;;;;;;;6.25;1.48;;;;;;;16.81;55.17;99867.09;5071596;28;20502;-71
2022/11/16 12:31:37;;;;;;;4.40;1.88;;;;;;;16.82;54.82;99864.22;5071409;28;20041;-71
2022/11/16 12:34:37;;;;;;;6.65;1.60;;;;;;;16.84;54.83;99866.75;5071440;28;20410;-72
2022/11/16 12:37:10;;;;;;;4.57;1.63;;;;;;;16.88;55.37;99864.53;5071736;28;20486;-71
2022/11/16 12:39:50;;;;;;;5.53;1.40;;;;;;;16.92;55.23;99865.88;5071530;28;20045;-72
2022/11/16 12:42:36;;;;;;;4.50;1.67;;;;;;;16.93;54.83;99859.44;5051767;28;20040;-72
2022/11/16 12:45:36;;;;;;;6.18;1.73;;;;;;;16.94;55.19;99856.56;5051861;28;20478;-72